Time;durP1;ratioP1;P1;durP2;ratioP2;P2;SDS_P1;SDS_P2;PMS_P1;PMS_P2;Temp;Humidity;BMP_temperature;BMP_pressure;BME280_temperature;BME280_humidity;BME280_pressure;Samples;Min_cycle;Max_cycle;Signal;HPM_P1;HPM_P2
2023/03/04 00:00:11;;;;;;;9.83;6.37;;;;;;;;;;4977289;28;20440;-77
2023/03/04 00:02:40;;;;;;;7.93;4.27;;;;;;;;;;4972259;28;20534;-76
2023/03/04 00:05:07;;;;;;;8.30;4.87;;;;;;;;;;4977069;28;20412;-77
2023/03/04 00:07:33;;;;;;;4.63;4.23;;;;;;;;;;4971447;28;20423;-76
2023/03/04 00:09:58;;;;;;;6.67;4.30;;;;;;;;;;4977602;28;20444;-76
2023/03/04 00:12:25;;;;;;;5.90;4.60;;;;;;;;;;4971324;28;20431;-77
2023/03/04 00:14:50;;;;;;;5.43;4.93;;;;;;;;;;4976699;28;20825;-75
2023/03/04 00:17:17;;;;;;;9.73;4.93;;;;;;;;;;4979896;28;20479;-76
2023/03/04 00:19:43;;;;;;;15.93;5.70;;;;;;;;;;4980340;28;20521;-76
2023/03/04 00:22:09;;;;;;;8.20;4.37;;;;;;;;;;4978520;28;20452;-77
2023/03/04 00:24:35;;;;;;;6.90;5.20;;;;;;;;;;4976427;28;22598;-76
2023/03/04 00:27:01;;;;;;;7.17;4.90;;;;;;;;;;4979328;28;20564;-76
2023/03/04 00:29:27;;;;;;;8.77;4.27;;;;;;;;;;4975137;28;20484;-77
2023/03/04 00:31:53;;;;;;;7.87;4.27;;;;;;;;;;4975846;28;20794;-76
2023/03/04 00:34:20;;;;;;;12.90;4.47;;;;;;;;;;4980078;28;20502;-76
2023/03/04 00:36:46;;;;;;;10.27;4.93;;;;;;;;;;4978426;28;20426;-76
2023/03/04 00:39:12;;;;;;;9.53;4.77;;;;;;;;;;4979753;28;20563;-77
2023/03/04 00:41:38;;;;;;;15.37;6.37;;;;;;;;;;4973312;28;20483;-76
2023/03/04 00:44:04;;;;;;;8.20;4.63;;;;;;;;;;4980949;28;20451;-76
2023/03/04 00:46:30;;;;;;;7.23;5.60;;;;;;;;;;4979238;28;20458;-76
2023/03/04 00:48:56;;;;;;;8.83;4.87;;;;;;;;;;4975869;28;20472;-76
2023/03/04 00:51:22;;;;;;;8.17;4.63;;;;;;;;;;4977547;28;20542;-78
2023/03/04 00:53:48;;;;;;;4.90;4.50;;;;;;;;;;4979624;28;20853;-77
2023/03/04 00:56:14;;;;;;;7.73;5.30;;;;;;;;;;4982212;28;20554;-77
2023/03/04 00:58:40;;;;;;;9.37;4.80;;;;;;;;;;4979958;28;20426;-79
2023/03/04 01:01:07;;;;;;;12.43;4.93;;;;;;;;;;4980633;28;20422;-78
2023/03/04 01:03:33;;;;;;;12.43;5.40;;;;;;;;;;4981231;28;20482;-77
2023/03/04 01:05:59;;;;;;;15.53;5.90;;;;;;;;;;4980467;28;20984;-77
2023/03/04 01:08:26;;;;;;;14.47;4.00;;;;;;;;;;4980045;28;20443;-76
2023/03/04 01:10:52;;;;;;;7.63;4.60;;;;;;;;;;4981315;28;20524;-77
2023/03/04 01:13:18;;;;;;;7.50;3.63;;;;;;;;;;4979907;28;20554;-76
2023/03/04 01:15:44;;;;;;;6.57;3.50;;;;;;;;;;4981198;28;20547;-76
2023/03/04 01:18:11;;;;;;;7.37;3.67;;;;;;;;;;4979522;28;20423;-76
2023/03/04 01:20:37;;;;;;;7.53;4.87;;;;;;;;;;4984206;28;21024;-77
2023/03/04 01:23:03;;;;;;;7.33;3.80;;;;;;;;;;4956267;28;20533;-76
2023/03/04 01:25:28;;;;;;;15.40;4.67;;;;;;;;;;4977661;28;21019;-76
2023/03/04 01:27:55;;;;;;;11.53;4.07;;;;;;;;;;4980064;28;20479;-75
2023/03/04 01:30:21;;;;;;;12.80;4.30;;;;;;;;;;4983034;28;20701;-76
2023/03/04 01:32:47;;;;;;;10.67;4.23;;;;;;;;;;4981825;28;20554;-76
2023/03/04 01:35:13;;;;;;;5.23;3.73;;;;;;;;;;4982899;28;20419;-77
2023/03/04 01:37:39;;;;;;;11.73;5.30;;;;;;;;;;4977406;28;20446;-74
2023/03/04 01:40:05;;;;;;;10.90;5.20;;;;;;;;;;4982794;28;20399;-78
2023/03/04 01:42:34;;;;;;;10.13;4.67;;;;;;;;;;4972595;28;20515;-76
2023/03/04 01:45:00;;;;;;;14.80;5.20;;;;;;;;;;4983425;28;20583;-77
2023/03/04 01:47:28;;;;;;;8.57;4.20;;;;;;;;;;4973707;28;20511;-76
2023/03/04 01:49:55;;;;;;;4.77;3.60;;;;;;;;;;4981968;28;20790;-76
2023/03/04 01:52:21;;;;;;;7.80;3.50;;;;;;;;;;4978845;28;20483;-76
2023/03/04 01:54:47;;;;;;;8.20;4.60;;;;;;;;;;4982558;28;20903;-77
2023/03/04 01:57:21;;;;;;;7.80;3.90;;;;;;;;;;4979714;28;20843;-74
2023/03/04 02:00:07;;;;;;;10.60;4.27;;;;;;;;;;4983376;28;20439;-76
2023/03/04 02:02:33;;;;;;;5.33;3.23;;;;;;;;;;4981245;28;20452;-75
2023/03/04 02:04:59;;;;;;;12.43;3.73;;;;;;;;;;4981230;28;20431;-76
2023/03/04 02:07:25;;;;;;;12.00;4.80;;;;;;;;;;4980102;28;20414;-75
2023/03/04 02:09:51;;;;;;;10.53;3.70;;;;;;;;;;4981304;28;21105;-76
2023/03/04 02:12:17;;;;;;;5.30;3.03;;;;;;;;;;4980689;28;20563;-76
2023/03/04 02:14:43;;;;;;;7.30;3.60;;;;;;;;;;4981159;28;20539;-75
2023/03/04 02:17:12;;;;;;;16.10;5.10;;;;;;;;;;4971403;28;20456;-75
2023/03/04 02:19:47;;;;;;;11.30;4.30;;;;;;;;;;4979724;28;20851;-75
2023/03/04 02:22:13;;;;;;;11.33;4.53;;;;;;;;;;4977109;28;20426;-75
2023/03/04 02:24:47;;;;;;;12.70;3.43;;;;;;;;;;4980684;28;20941;-76
2023/03/04 02:27:16;;;;;;;4.37;3.97;;;;;;;;;;4979713;28;21305;-77
2023/03/04 02:29:42;;;;;;;3.43;2.60;;;;;;;;;;4981726;28;20472;-76
2023/03/04 02:32:10;;;;;;;10.63;3.40;;;;;;;;;;4979656;28;20427;-76
2023/03/04 02:34:36;;;;;;;7.00;3.07;;;;;;;;;;4982170;28;20431;-77
2023/03/04 02:37:03;;;;;;;10.07;2.97;;;;;;;;;;4980438;28;20433;-75
2023/03/04 02:39:36;;;;;;;15.63;4.20;;;;;;;;;;4983068;28;20438;-75
2023/03/04 02:42:02;;;;;;;7.57;3.50;;;;;;;;;;4979770;28;20550;-74
2023/03/04 02:44:36;;;;;;;10.97;2.93;;;;;;;;;;4983289;28;20467;-76
2023/03/04 02:47:03;;;;;;;9.37;3.53;;;;;;;;;;4963839;28;21351;-76
2023/03/04 02:49:30;;;;;;;4.37;4.00;;;;;;;;;;4980416;28;20480;-76
2023/03/04 02:52:04;;;;;;;8.20;3.50;;;;;;;;;;4979676;28;20446;-76
2023/03/04 02:54:30;;;;;;;15.23;3.43;;;;;;;;;;4981634;28;20498;-75
2023/03/04 02:57:01;;;;;;;9.77;3.67;;;;;;;;;;4979809;28;20619;-75
2023/03/04 02:59:27;;;;;;;3.53;3.10;;;;;;;;;;4982767;28;20509;-77
2023/03/04 03:01:54;;;;;;;14.70;4.30;;;;;;;;;;4979019;28;20808;-75
2023/03/04 03:04:21;;;;;;;7.87;2.90;;;;;;;;;;4979875;28;20442;-76
2023/03/04 03:06:46;;;;;;;8.10;3.33;;;;;;;;;;4978266;28;20499;-75
2023/03/04 03:09:12;;;;;;;11.60;3.03;;;;;;;;;;4976470;28;20472;-77
2023/03/04 03:11:38;;;;;;;4.97;3.80;;;;;;;;;;4979196;28;20599;-75
2023/03/04 03:14:05;;;;;;;8.00;2.73;;;;;;;;;;4961556;28;20431;-77
2023/03/04 03:16:31;;;;;;;12.67;3.90;;;;;;;;;;4980439;28;20425;-76
2023/03/04 03:18:57;;;;;;;16.60;4.03;;;;;;;;;;4978955;28;20446;-75
2023/03/04 03:21:23;;;;;;;3.63;2.67;;;;;;;;;;4980039;28;20423;-76
2023/03/04 03:23:49;;;;;;;4.67;3.13;;;;;;;;;;4980385;28;20591;-75
2023/03/04 03:26:17;;;;;;;6.90;3.30;;;;;;;;;;4981187;28;20484;-76
2023/03/04 03:28:43;;;;;;;11.10;3.17;;;;;;;;;;4980156;28;20452;-77
2023/03/04 03:31:09;;;;;;;11.07;4.03;;;;;;;;;;4969968;28;20452;-76
2023/03/04 03:33:35;;;;;;;15.93;3.73;;;;;;;;;;4980581;28;20481;-76
2023/03/04 03:36:01;;;;;;;6.83;2.60;;;;;;;;;;4979983;28;20418;-76
2023/03/04 03:38:27;;;;;;;14.60;5.50;;;;;;;;;;4979448;28;20437;-75
2023/03/04 03:40:53;;;;;;;8.93;3.60;;;;;;;;;;4979072;28;20955;-76
2023/03/04 03:43:19;;;;;;;7.07;3.33;;;;;;;;;;4970278;28;20475;-76
2023/03/04 03:45:45;;;;;;;9.70;3.63;;;;;;;;;;4976818;28;20447;-75
2023/03/04 03:48:11;;;;;;;19.83;3.43;;;;;;;;;;4970373;28;20523;-76
2023/03/04 03:50:37;;;;;;;14.13;4.13;;;;;;;;;;4981498;28;21125;-76
2023/03/04 03:53:04;;;;;;;5.60;3.27;;;;;;;;;;4976686;28;20437;-76
2023/03/04 03:55:29;;;;;;;6.60;2.30;;;;;;;;;;4983406;28;20431;-75
2023/03/04 03:57:55;;;;;;;12.30;3.93;;;;;;;;;;4977911;28;20434;-75
2023/03/04 04:00:22;;;;;;;10.20;3.23;;;;;;;;;;4962251;28;21893;-76
2023/03/04 04:02:48;;;;;;;7.13;2.63;;;;;;;;;;4959177;28;20534;-75
2023/03/04 04:05:14;;;;;;;14.53;3.50;;;;;;;;;;4980165;28;20403;-74
2023/03/04 04:07:41;;;;;;;7.30;3.60;;;;;;;;;;4977349;28;20418;-77
2023/03/04 04:10:07;;;;;;;5.90;2.73;;;;;;;;;;4981437;28;20790;-76
2023/03/04 04:12:34;;;;;;;5.00;2.73;;;;;;;;;;4980491;28;20513;-76
2023/03/04 04:15:00;;;;;;;4.43;2.33;;;;;;;;;;4981918;28;20784;-75
2023/03/04 04:17:26;;;;;;;5.97;2.67;;;;;;;;;;4977381;28;20510;-77
2023/03/04 04:19:52;;;;;;;5.70;3.13;;;;;;;;;;4980369;28;20480;-77
2023/03/04 04:22:19;;;;;;;15.77;4.23;;;;;;;;;;4979565;28;20507;-76
2023/03/04 04:24:46;;;;;;;9.73;2.60;;;;;;;;;;4979749;28;20390;-75
2023/03/04 04:27:12;;;;;;;9.47;3.73;;;;;;;;;;4975200;28;20479;-76
2023/03/04 04:29:38;;;;;;;5.40;2.43;;;;;;;;;;4979318;28;20449;-76
2023/03/04 04:32:04;;;;;;;9.20;3.10;;;;;;;;;;4982435;28;20458;-75
2023/03/04 04:34:30;;;;;;;9.70;2.30;;;;;;;;;;4966751;28;20487;-75
2023/03/04 04:36:56;;;;;;;7.83;2.60;;;;;;;;;;4965750;28;20984;-77
2023/03/04 04:39:22;;;;;;;12.27;2.60;;;;;;;;;;4985424;28;20521;-76
2023/03/04 04:41:48;;;;;;;8.90;2.40;;;;;;;;;;4978046;28;20525;-75
2023/03/04 04:44:14;;;;;;;8.27;3.00;;;;;;;;;;4976278;28;20459;-75
2023/03/04 04:46:41;;;;;;;7.83;2.33;;;;;;;;;;4974974;28;20504;-77
2023/03/04 04:49:07;;;;;;;7.20;2.33;;;;;;;;;;4970414;28;20552;-75
2023/03/04 04:51:34;;;;;;;7.83;2.53;;;;;;;;;;4966091;28;20874;-76
2023/03/04 04:54:01;;;;;;;8.13;2.37;;;;;;;;;;4965253;28;21087;-75
2023/03/04 04:56:27;;;;;;;7.67;2.33;;;;;;;;;;4974030;28;20489;-76
2023/03/04 04:58:54;;;;;;;8.90;3.03;;;;;;;;;;4961621;28;20437;-76
2023/03/04 05:01:20;;;;;;;8.30;2.67;;;;;;;;;;4977856;28;20460;-76
2023/03/04 05:03:48;;;;;;;3.13;2.40;;;;;;;;;;4976143;28;20452;-76
2023/03/04 05:06:14;;;;;;;10.23;2.70;;;;;;;;;;4979924;28;20550;-77
2023/03/04 05:08:40;;;;;;;11.37;3.27;;;;;;;;;;4975245;28;20882;-76
2023/03/04 05:11:07;;;;;;;11.83;3.77;;;;;;;;;;4969440;28;20483;-75
2023/03/04 05:13:33;;;;;;;7.17;2.67;;;;;;;;;;4982517;28;20505;-77
2023/03/04 05:15:59;;;;;;;9.83;2.27;;;;;;;;;;4976461;28;21292;-76
2023/03/04 05:18:25;;;;;;;5.83;2.20;;;;;;;;;;4960050;28;20535;-77
2023/03/04 05:20:52;;;;;;;20.13;3.80;;;;;;;;;;4974745;28;20561;-76
2023/03/04 05:23:18;;;;;;;5.47;2.80;;;;;;;;;;4974491;28;20453;-76
2023/03/04 05:25:44;;;;;;;8.13;2.20;;;;;;;;;;4965219;28;20418;-77
2023/03/04 05:28:11;;;;;;;11.37;2.57;;;;;;;;;;4965488;28;20472;-77
2023/03/04 05:30:38;;;;;;;4.77;1.90;;;;;;;;;;4977883;28;20515;-76
2023/03/04 05:33:04;;;;;;;8.33;2.43;;;;;;;;;;4974581;28;20483;-77
2023/03/04 05:35:30;;;;;;;9.27;1.80;;;;;;;;;;4979014;28;20544;-76
2023/03/04 05:37:56;;;;;;;5.73;2.00;;;;;;;;;;4975001;28;20440;-78
2023/03/04 05:40:24;;;;;;;4.37;2.50;;;;;;;;;;4982017;28;21115;-77
2023/03/04 05:42:50;;;;;;;13.20;2.43;;;;;;;;;;4975134;28;20479;-77
2023/03/04 05:45:16;;;;;;;10.40;2.50;;;;;;;;;;4976721;28;20446;-78
2023/03/04 05:47:42;;;;;;;6.47;2.20;;;;;;;;;;4976846;28;20452;-78
2023/03/04 05:50:08;;;;;;;3.20;2.17;;;;;;;;;;4972137;28;20905;-79
2023/03/04 05:52:35;;;;;;;7.10;2.27;;;;;;;;;;4964943;28;20544;-79
2023/03/04 05:55:01;;;;;;;7.07;1.87;;;;;;;;;;4977774;28;20441;-78
2023/03/04 05:57:27;;;;;;;2.43;2.30;;;;;;;;;;4974776;28;20455;-77
2023/03/04 05:59:52;;;;;;;5.20;2.50;;;;;;;;;;4980120;28;22154;-76
2023/03/04 06:02:18;;;;;;;2.50;2.00;;;;;;;;;;4968996;28;20448;-78
2023/03/04 06:04:44;;;;;;;6.23;2.50;;;;;;;;;;4968447;28;20429;-77
2023/03/04 06:07:10;;;;;;;5.53;2.50;;;;;;;;;;4962448;28;20449;-78
2023/03/04 06:09:36;;;;;;;10.30;2.83;;;;;;;;;;4973898;28;20473;-78
2023/03/04 06:12:02;;;;;;;11.13;2.53;;;;;;;;;;4965294;28;20440;-78
2023/03/04 06:14:28;;;;;;;9.90;2.67;;;;;;;;;;4976789;28;20422;-78
2023/03/04 06:16:54;;;;;;;10.93;2.90;;;;;;;;;;4978491;28;20482;-78
2023/03/04 06:19:20;;;;;;;10.13;2.50;;;;;;;;;;4974426;28;20560;-76
2023/03/04 06:21:47;;;;;;;7.67;2.33;;;;;;;;;;4978935;28;20514;-78
2023/03/04 06:24:13;;;;;;;7.73;2.53;;;;;;;;;;4973717;28;20458;-84
2023/03/04 06:26:39;;;;;;;3.43;2.70;;;;;;;;;;4966219;28;20423;-88
2023/03/04 06:29:05;;;;;;;3.27;2.13;;;;;;;;;;4996171;28;20529;-86
2023/03/04 06:31:31;;;;;;;12.97;2.70;;;;;;;;;;4999586;28;20929;-88
2023/03/04 06:33:57;;;;;;;9.00;2.37;;;;;;;;;;4969232;28;20435;-76
2023/03/04 06:36:23;;;;;;;4.93;3.27;;;;;;;;;;4965433;28;20499;-78
2023/03/04 06:38:49;;;;;;;4.33;1.63;;;;;;;;;;4956503;28;20442;-77
2023/03/04 06:41:15;;;;;;;7.13;2.73;;;;;;;;;;4961886;28;20432;-77
2023/03/04 06:43:41;;;;;;;8.37;2.23;;;;;;;;;;4961401;28;20930;-78
2023/03/04 06:46:10;;;;;;;2.30;2.20;;;;;;;;;;4974638;28;20510;-88
2023/03/04 06:48:36;;;;;;;3.17;2.07;;;;;;;;;;4996880;28;20450;-82
2023/03/04 06:51:09;;;;;;;14.37;3.10;;;;;;;;;;4984090;28;20449;-85
2023/03/04 06:53:35;;;;;;;2.50;2.30;;;;;;;;;;4979844;28;20950;-75
2023/03/04 06:56:01;;;;;;;6.90;3.87;;;;;;;;;;4982833;28;20456;-76
2023/03/04 06:58:27;;;;;;;7.80;3.40;;;;;;;;;;4980068;28;20973;-75
2023/03/04 07:00:53;;;;;;;2.80;2.30;;;;;;;;;;4984195;28;20506;-78
2023/03/04 07:03:19;;;;;;;3.70;2.20;;;;;;;;;;4962361;28;20436;-76
2023/03/04 07:05:45;;;;;;;2.27;2.00;;;;;;;;;;4980377;28;20433;-77
2023/03/04 07:08:11;;;;;;;8.17;2.53;;;;;;;;;;4975301;28;20501;-87
2023/03/04 07:10:37;;;;;;;5.30;2.30;;;;;;;;;;4997309;28;21873;-87
2023/03/04 07:13:03;;;;;;;5.97;2.40;;;;;;;;;;4974014;28;20431;-81
2023/03/04 07:15:29;;;;;;;5.00;2.70;;;;;;;;;;4992943;28;20428;-76
2023/03/04 07:17:55;;;;;;;9.27;2.70;;;;;;;;;;4990121;28;20419;-76
2023/03/04 07:20:22;;;;;;;3.40;2.60;;;;;;;;;;4982752;28;20544;-78
2023/03/04 07:22:48;;;;;;;8.10;2.70;;;;;;;;;;4970399;28;20419;-78
2023/03/04 07:25:13;;;;;;;3.33;2.10;;;;;;;;;;4978738;28;20431;-78
2023/03/04 07:27:39;;;;;;;3.23;2.40;;;;;;;;;;4975723;28;20395;-77
2023/03/04 07:30:06;;;;;;;4.67;1.93;;;;;;;;;;4979590;28;21090;-77
2023/03/04 07:32:35;;;;;;;6.67;3.10;;;;;;;;;;4980757;28;20598;-77
2023/03/04 07:35:03;;;;;;;5.33;2.80;;;;;;;;;;4990254;28;20426;-77
2023/03/04 07:37:29;;;;;;;4.13;2.97;;;;;;;;;;4965681;28;20473;-76
2023/03/04 07:39:55;;;;;;;5.00;2.27;;;;;;;;;;4970869;28;20440;-76
2023/03/04 07:42:21;;;;;;;4.67;2.87;;;;;;;;;;4980013;28;20539;-75
2023/03/04 07:44:47;;;;;;;5.50;2.50;;;;;;;;;;4973388;28;20415;-76
2023/03/04 07:47:13;;;;;;;3.90;2.20;;;;;;;;;;4977842;28;20406;-77
2023/03/04 07:49:39;;;;;;;4.97;2.50;;;;;;;;;;4976504;28;21266;-76
2023/03/04 07:52:05;;;;;;;2.20;1.80;;;;;;;;;;4985572;28;20714;-85
2023/03/04 07:54:31;;;;;;;2.13;2.03;;;;;;;;;;4995257;28;20445;-85
2023/03/04 07:56:57;;;;;;;9.20;2.63;;;;;;;;;;4967394;28;20917;-76
2023/03/04 07:59:23;;;;;;;5.87;2.50;;;;;;;;;;4980462;28;20418;-75
2023/03/04 08:01:49;;;;;;;3.83;2.23;;;;;;;;;;4959041;28;20931;-77
2023/03/04 08:04:15;;;;;;;10.07;3.10;;;;;;;;;;4971133;28;20423;-78
2023/03/04 08:06:42;;;;;;;12.33;2.50;;;;;;;;;;4978991;28;20441;-77
2023/03/04 08:09:08;;;;;;;4.30;1.80;;;;;;;;;;4971108;28;20504;-78
2023/03/04 08:11:36;;;;;;;2.40;2.20;;;;;;;;;;4982170;28;21246;-77
2023/03/04 08:14:02;;;;;;;3.43;2.07;;;;;;;;;;4981534;28;20541;-76
2023/03/04 08:16:29;;;;;;;5.80;2.23;;;;;;;;;;4966581;28;20424;-78
2023/03/04 08:18:56;;;;;;;3.60;2.50;;;;;;;;;;4974815;28;20948;-77
2023/03/04 08:21:22;;;;;;;5.27;1.33;;;;;;;;;;4980448;28;20844;-78
2023/03/04 08:23:48;;;;;;;3.73;2.07;;;;;;;;;;4989485;28;20436;-76
2023/03/04 08:26:25;;;;;;;6.83;2.53;;;;;;;;;;4981721;28;20514;-76
2023/03/04 08:28:52;;;;;;;7.87;4.10;;;;;;;;;;4970844;28;20468;-78
2023/03/04 08:31:18;;;;;;;7.13;2.33;;;;;;;;;;4996480;28;20439;-74
2023/03/04 08:33:44;;;;;;;7.30;3.10;;;;;;;;;;4975404;28;20444;-87
2023/03/04 08:36:11;;;;;;;8.70;2.20;;;;;;;;;;4969822;28;20429;-80
2023/03/04 08:38:37;;;;;;;5.00;3.33;;;;;;;;;;4982957;28;20970;-81
2023/03/04 08:41:03;;;;;;;5.43;3.10;;;;;;;;;;4978896;28;20440;-80
2023/03/04 08:43:30;;;;;;;5.83;2.40;;;;;;;;;;4982052;28;20464;-77
2023/03/04 08:45:56;;;;;;;3.20;2.10;;;;;;;;;;4980578;28;20506;-78
2023/03/04 08:48:22;;;;;;;3.83;2.47;;;;;;;;;;4982107;28;20979;-78
2023/03/04 08:50:48;;;;;;;2.30;2.10;;;;;;;;;;4981234;28;20477;-79
2023/03/04 08:53:21;;;;;;;8.63;3.30;;;;;;;;;;4982488;28;20448;-78
2023/03/04 08:55:47;;;;;;;3.30;3.00;;;;;;;;;;4970035;28;20416;-80
2023/03/04 08:58:13;;;;;;;5.73;1.90;;;;;;;;;;4987064;28;20440;-79
2023/03/04 09:00:42;;;;;;;7.50;2.73;;;;;;;;;;4986622;28;20466;-79
2023/03/04 09:03:08;;;;;;;5.50;4.00;;;;;;;;;;4984847;28;20424;-82
2023/03/04 09:05:33;;;;;;;3.53;3.23;;;;;;;;;;4986640;28;20490;-80
2023/03/04 09:07:59;;;;;;;5.30;3.00;;;;;;;;;;4980422;28;20666;-79
2023/03/04 09:10:26;;;;;;;5.40;4.10;;;;;;;;;;4984332;28;20436;-78
2023/03/04 09:12:52;;;;;;;2.90;2.70;;;;;;;;;;4984423;28;20440;-81
2023/03/04 09:15:18;;;;;;;5.80;3.13;;;;;;;;;;4982815;28;20435;-79
2023/03/04 09:17:44;;;;;;;6.90;3.73;;;;;;;;;;4984843;28;20460;-81
2023/03/04 09:20:11;;;;;;;4.23;3.83;;;;;;;;;;4972172;28;20457;-81
2023/03/04 09:22:37;;;;;;;9.63;3.93;;;;;;;;;;4963202;28;20508;-82
2023/03/04 09:25:04;;;;;;;5.97;4.37;;;;;;;;;;4949146;28;20453;-80
2023/03/04 09:27:30;;;;;;;10.00;4.97;;;;;;;;;;4967319;28;20781;-79
2023/03/04 09:29:56;;;;;;;5.93;5.33;;;;;;;;;;4965325;28;20579;-80
2023/03/04 09:32:22;;;;;;;7.07;6.27;;;;;;;;;;4954233;28;20584;-82
2023/03/04 09:34:48;;;;;;;5.20;4.70;;;;;;;;;;4970639;28;21202;-81
2023/03/04 09:37:14;;;;;;;8.50;5.13;;;;;;;;;;4965514;28;20523;-80
2023/03/04 09:39:40;;;;;;;14.33;4.57;;;;;;;;;;4964129;28;20533;-83
2023/03/04 09:42:08;;;;;;;5.60;4.70;;;;;;;;;;4962581;28;21015;-80
2023/03/04 09:44:40;;;;;;;6.23;5.40;;;;;;;;;;4960988;28;20444;-81
2023/03/04 09:47:09;;;;;;;7.90;5.00;;;;;;;;;;4967115;28;20421;-79
2023/03/04 09:49:38;;;;;;;10.10;5.67;;;;;;;;;;4964612;28;20481;-80
2023/03/04 09:52:18;;;;;;;10.10;7.63;;;;;;;;;;4968922;28;20441;-81
2023/03/04 09:54:53;;;;;;;12.63;9.47;;;;;;;;;;4966854;28;20456;-80
2023/03/04 09:57:34;;;;;;;20.47;14.10;;;;;;;;;;4955675;28;21065;-79
2023/03/04 10:00:06;;;;;;;18.00;10.10;;;;;;;;;;4964323;28;20433;-81
2023/03/04 10:02:38;;;;;;;18.30;10.57;;;;;;;;;;4968876;28;20421;-79
2023/03/04 10:05:05;;;;;;;16.80;11.10;;;;;;;;;;4964396;28;20441;-82
2023/03/04 10:07:34;;;;;;;14.90;10.83;;;;;;;;;;4973388;28;21123;-80
2023/03/04 10:10:06;;;;;;;16.33;10.60;;;;;;;;;;4965475;28;20480;-81
2023/03/04 10:12:33;;;;;;;13.80;9.27;;;;;;;;;;4967320;28;20796;-81
2023/03/04 10:15:18;;;;;;;12.90;8.90;;;;;;;;;;4965493;28;20429;-81
2023/03/04 10:17:45;;;;;;;9.43;7.50;;;;;;;;;;4969295;28;20447;-79
2023/03/04 10:20:25;;;;;;;18.73;8.17;;;;;;;;;;4965656;28;20519;-80
2023/03/04 10:22:55;;;;;;;13.37;9.90;;;;;;;;;;4973229;28;20500;-80
2023/03/04 10:25:24;;;;;;;13.20;8.23;;;;;;;;;;4963085;28;20788;-80
2023/03/04 10:27:56;;;;;;;13.50;7.60;;;;;;;;;;4950095;29;20430;-79
2023/03/04 10:30:42;;;;;;;15.07;9.03;;;;;;;;;;4959813;28;20433;-78
2023/03/04 10:33:12;;;;;;;13.70;7.90;;;;;;;;;;4914461;28;20512;-80
2023/03/04 10:35:38;;;;;;;9.07;8.20;;;;;;;;;;4969817;28;20401;-80
2023/03/04 10:38:06;;;;;;;8.00;7.20;;;;;;;;;;4946162;28;20442;-81
2023/03/04 10:40:37;;;;;;;10.23;8.27;;;;;;;;;;4968407;28;20513;-80
2023/03/04 10:43:07;;;;;;;9.80;7.80;;;;;;;;;;4947455;28;20473;-80
2023/03/04 10:45:37;;;;;;;13.70;8.83;;;;;;;;;;4961752;28;20418;-79
2023/03/04 10:48:03;;;;;;;17.73;12.73;;;;;;;;;;4957315;28;20576;-79
2023/03/04 10:50:30;;;;;;;15.27;11.30;;;;;;;;;;4967466;28;20437;-81
2023/03/04 10:52:56;;;;;;;15.50;11.10;;;;;;;;;;4944571;28;20465;-81
2023/03/04 10:55:27;;;;;;;14.17;11.63;;;;;;;;;;4967383;28;20433;-81
2023/03/04 10:57:54;;;;;;;12.50;9.10;;;;;;;;;;4964198;28;20520;-80
2023/03/04 11:00:40;;;;;;;11.90;9.40;;;;;;;;;;4967142;28;20517;-81
2023/03/04 11:03:29;;;;;;;12.30;9.20;;;;;;;;;;4953436;28;20452;-81
2023/03/04 11:06:12;;;;;;;13.97;9.70;;;;;;;;;;4959803;28;20516;-82
2023/03/04 11:08:39;;;;;;;13.90;10.07;;;;;;;;;;4949227;28;20986;-80
2023/03/04 11:11:20;;;;;;;14.70;10.00;;;;;;;;;;4965431;28;20428;-81
2023/03/04 11:14:12;;;;;;;18.80;11.80;;;;;;;;;;4962791;28;21177;-82
2023/03/04 11:16:38;;;;;;;13.80;12.03;;;;;;;;;;4964041;28;20433;-82
2023/03/04 11:19:10;;;;;;;21.93;13.43;;;;;;;;;;4965761;28;20481;-82
2023/03/04 11:21:38;;;;;;;17.20;9.60;;;;;;;;;;4982687;28;20430;-81
2023/03/04 11:24:14;;;;;;;16.43;14.73;;;;;;;;;;4976676;28;20975;-82
2023/03/04 11:26:49;;;;;;;15.63;11.00;;;;;;;;;;4960872;28;20460;-82
2023/03/04 11:29:22;;;;;;;13.40;8.80;;;;;;;;;;4991012;28;20472;-82
2023/03/04 11:31:51;;;;;;;10.60;7.20;;;;;;;;;;4982647;28;20973;-81
2023/03/04 11:34:23;;;;;;;15.30;11.20;;;;;;;;;;4980133;28;20578;-79
2023/03/04 11:37:00;;;;;;;15.13;11.00;;;;;;;;;;4986818;28;20428;-79
2023/03/04 11:39:26;;;;;;;17.47;11.30;;;;;;;;;;4987305;28;20938;-77
2023/03/04 11:42:01;;;;;;;15.57;10.33;;;;;;;;;;4997227;28;20451;-78
2023/03/04 11:44:27;;;;;;;11.90;9.20;;;;;;;;;;4988344;28;20533;-79
2023/03/04 11:47:02;;;;;;;8.80;8.00;;;;;;;;;;4975533;28;20872;-79
2023/03/04 11:49:37;;;;;;;10.10;9.20;;;;;;;;;;4977520;28;20997;-79
2023/03/04 11:52:12;;;;;;;4.70;4.33;;;;;;;;;;4985708;28;20485;-80
2023/03/04 11:54:41;;;;;;;6.13;5.53;;;;;;;;;;4990045;28;20443;-79
2023/03/04 11:57:12;;;;;;;8.50;6.33;;;;;;;;;;4994699;28;20431;-79
2023/03/04 11:59:56;;;;;;;10.70;8.13;;;;;;;;;;4981076;28;20436;-78
2023/03/04 12:02:48;;;;;;;10.43;6.60;;;;;;;;;;4990517;28;20427;-79
2023/03/04 12:05:50;;;;;;;8.47;6.63;;;;;;;;;;4972061;28;20427;-79
2023/03/04 12:08:39;;;;;;;8.17;7.00;;;;;;;;;;4889288;29;20634;-78
2023/03/04 12:11:09;;;;;;;7.00;6.40;;;;;;;;;;4980701;28;20427;-79
2023/03/04 12:13:42;;;;;;;5.83;5.40;;;;;;;;;;4986129;28;20467;-81
2023/03/04 12:16:20;;;;;;;7.03;6.33;;;;;;;;;;4988845;28;20671;-79
2023/03/04 12:19:02;;;;;;;8.77;6.20;;;;;;;;;;4987770;28;20452;-80
2023/03/04 12:21:43;;;;;;;7.20;6.50;;;;;;;;;;4989860;28;20419;-80
2023/03/04 12:24:28;;;;;;;6.73;6.20;;;;;;;;;;4978794;28;20469;-82
2023/03/04 12:27:00;;;;;;;7.13;6.57;;;;;;;;;;4987852;28;20994;-80
2023/03/04 12:29:26;;;;;;;13.67;7.30;;;;;;;;;;4989324;28;20514;-85
2023/03/04 12:32:15;;;;;;;7.73;5.83;;;;;;;;;;4986026;28;20468;-79
2023/03/04 12:34:59;;;;;;;4.87;4.60;;;;;;;;;;4970973;28;20464;-83
2023/03/04 12:37:25;;;;;;;9.30;4.73;;;;;;;;;;4988257;28;20537;-85
2023/03/04 12:40:09;;;;;;;4.13;3.93;;;;;;;;;;4982637;28;20409;-82
2023/03/04 12:42:48;;;;;;;4.77;4.47;;;;;;;;;;4977559;28;20452;-79
2023/03/04 12:45:24;;;;;;;6.70;5.20;;;;;;;;;;4986079;28;20405;-82
2023/03/04 12:47:50;;;;;;;4.27;3.97;;;;;;;;;;4982935;28;20465;-80
2023/03/04 12:50:31;;;;;;;6.47;4.57;;;;;;;;;;4971835;28;20821;-80
2023/03/04 12:53:03;;;;;;;7.00;6.33;;;;;;;;;;4969089;28;20437;-78
2023/03/04 12:55:39;;;;;;;6.00;5.50;;;;;;;;;;4975161;28;20420;-83
2023/03/04 12:58:06;;;;;;;10.30;6.87;;;;;;;;;;4995660;28;20442;-81
2023/03/04 13:00:39;;;;;;;9.00;5.97;;;;;;;;;;4977372;28;20408;-81
2023/03/04 13:03:08;;;;;;;7.33;6.60;;;;;;;;;;4978780;28;20520;-83
2023/03/04 13:05:56;;;;;;;8.00;6.97;;;;;;;;;;4989670;28;20437;-81
2023/03/04 13:08:22;;;;;;;6.90;5.77;;;;;;;;;;4987392;28;20469;-80
2023/03/04 13:10:50;;;;;;;7.33;5.67;;;;;;;;;;4986972;28;21120;-81
2023/03/04 13:13:34;;;;;;;7.50;6.70;;;;;;;;;;4990690;28;20464;-82
2023/03/04 13:16:23;;;;;;;8.50;6.90;;;;;;;;;;4989223;28;20792;-81
2023/03/04 13:18:49;;;;;;;8.13;6.50;;;;;;;;;;4927821;28;20476;-78
2023/03/04 13:21:28;;;;;;;7.50;6.77;;;;;;;;;;4967919;28;20459;-79
2023/03/04 13:23:55;;;;;;;8.10;7.00;;;;;;;;;;4960813;28;20848;-77
2023/03/04 13:26:28;;;;;;;8.63;7.20;;;;;;;;;;4968848;28;20436;-77
2023/03/04 13:29:30;;;;;;;11.63;8.63;;;;;;;;;;4963908;28;20487;-81
2023/03/04 13:32:02;;;;;;;13.77;10.70;;;;;;;;;;4961512;28;20418;-77
2023/03/04 13:34:47;;;;;;;12.70;10.17;;;;;;;;;;4964445;28;20476;-76
2023/03/04 13:37:35;;;;;;;8.23;7.43;;;;;;;;;;4967515;28;20580;-78
2023/03/04 13:40:20;;;;;;;9.50;8.50;;;;;;;;;;4965842;28;20459;-79
2023/03/04 13:42:46;;;;;;;9.10;5.67;;;;;;;;;;4964575;28;20461;-79
2023/03/04 13:45:32;;;;;;;6.17;5.67;;;;;;;;;;4969345;28;20405;-78
2023/03/04 13:47:58;;;;;;;6.40;5.80;;;;;;;;;;4963410;28;20840;-79
2023/03/04 13:50:38;;;;;;;9.77;7.17;;;;;;;;;;4967538;28;20432;-78
2023/03/04 13:53:23;;;;;;;11.03;8.90;;;;;;;;;;4961681;28;20434;-79
2023/03/04 13:56:08;;;;;;;17.50;12.13;;;;;;;;;;4947920;28;20530;-78
2023/03/04 13:58:34;;;;;;;15.83;11.40;;;;;;;;;;4960803;28;20433;-78
2023/03/04 14:01:00;;;;;;;17.10;11.50;;;;;;;;;;4963549;28;20444;-78
2023/03/04 14:03:28;;;;;;;20.80;13.23;;;;;;;;;;4966682;28;20440;-78
2023/03/04 14:06:12;;;;;;;18.20;12.37;;;;;;;;;;4956552;28;20445;-77
2023/03/04 14:08:38;;;;;;;20.67;14.10;;;;;;;;;;4956209;28;20484;-79
2023/03/04 14:11:04;;;;;;;15.80;11.70;;;;;;;;;;4951550;28;20479;-76
2023/03/04 14:13:31;;;;;;;16.10;11.33;;;;;;;;;;4955336;28;20551;-79
2023/03/04 14:15:57;;;;;;;21.73;13.70;;;;;;;;;;4950203;28;20461;-76
2023/03/04 14:18:24;;;;;;;18.03;12.83;;;;;;;;;;4952643;28;20994;-78
2023/03/04 14:20:51;;;;;;;21.53;13.57;;;;;;;;;;4936627;28;20552;-76
2023/03/04 14:23:26;;;;;;;18.67;12.10;;;;;;;;;;4954210;28;20464;-77
2023/03/04 14:25:52;;;;;;;21.00;13.50;;;;;;;;;;4950695;28;20544;-76
2023/03/04 14:28:19;;;;;;;20.50;13.00;;;;;;;;;;4946785;28;20834;-78
2023/03/04 14:30:55;;;;;;;16.60;12.10;;;;;;;;;;4953442;28;20511;-78
2023/03/04 14:33:23;;;;;;;17.33;9.80;;;;;;;;;;4952409;28;20466;-77
2023/03/04 14:35:54;;;;;;;16.70;11.40;;;;;;;;;;4952707;28;20468;-77
2023/03/04 14:38:25;;;;;;;12.17;9.60;;;;;;;;;;4960276;28;20905;-79
2023/03/04 14:40:52;;;;;;;17.13;10.47;;;;;;;;;;4957351;28;21238;-77
2023/03/04 14:43:20;;;;;;;17.53;11.13;;;;;;;;;;4962191;28;20430;-77
2023/03/04 14:45:48;;;;;;;16.40;10.43;;;;;;;;;;4958719;28;20511;-79